sensor_id;sensor_type;location;lat;lon;timestamp;P1;durP1;ratioP1;P2;durP2;ratioP2
73120;SDS011;61307;49.628;-1.624;2023-12-22T00:01:45;7.82;;;2.10;;
73120;SDS011;61307;49.628;-1.624;2023-12-22T00:04:12;6.28;;;1.95;;
73120;SDS011;61307;49.628;-1.624;2023-12-22T00:06:39;8.80;;;2.03;;
73120;SDS011;61307;49.628;-1.624;2023-12-22T00:09:08;7.80;;;2.05;;
73120;SDS011;61307;49.628;-1.624;2023-12-22T00:11:35;9.00;;;2.30;;
73120;SDS011;61307;49.628;-1.624;2023-12-22T00:14:01;7.45;;;2.17;;
73120;SDS011;61307;49.628;-1.624;2023-12-22T00:16:28;8.55;;;2.33;;
73120;SDS011;61307;49.628;-1.624;2023-12-22T00:18:55;7.47;;;2.60;;
73120;SDS011;61307;49.628;-1.624;2023-12-22T00:21:22;6.35;;;2.13;;
73120;SDS011;61307;49.628;-1.624;2023-12-22T00:23:49;9.38;;;2.28;;
73120;SDS011;61307;49.628;-1.624;2023-12-22T00:26:17;8.07;;;1.98;;
73120;SDS011;61307;49.628;-1.624;2023-12-22T00:28:44;9.07;;;2.47;;
73120;SDS011;61307;49.628;-1.624;2023-12-22T00:31:11;8.88;;;2.45;;
73120;SDS011;61307;49.628;-1.624;2023-12-22T00:33:38;10.45;;;2.35;;
73120;SDS011;61307;49.628;-1.624;2023-12-22T00:36:06;11.70;;;2.40;;
73120;SDS011;61307;49.628;-1.624;2023-12-22T00:38:34;12.25;;;2.25;;
73120;SDS011;61307;49.628;-1.624;2023-12-22T00:41:00;9.15;;;2.72;;
73120;SDS011;61307;49.628;-1.624;2023-12-22T00:43:29;9.32;;;2.65;;
73120;SDS011;61307;49.628;-1.624;2023-12-22T00:45:56;10.57;;;2.33;;
73120;SDS011;61307;49.628;-1.624;2023-12-22T00:48:23;7.35;;;2.40;;
73120;SDS011;61307;49.628;-1.624;2023-12-22T00:50:50;8.20;;;2.42;;
73120;SDS011;61307;49.628;-1.624;2023-12-22T00:53:17;8.63;;;2.88;;
73120;SDS011;61307;49.628;-1.624;2023-12-22T00:55:44;13.63;;;2.60;;
73120;SDS011;61307;49.628;-1.624;2023-12-22T00:58:11;9.65;;;2.08;;
73120;SDS011;61307;49.628;-1.624;2023-12-22T01:00:40;9.60;;;1.85;;
73120;SDS011;61307;49.628;-1.624;2023-12-22T01:03:07;10.80;;;2.35;;
73120;SDS011;61307;49.628;-1.624;2023-12-22T01:05:36;9.07;;;2.80;;
73120;SDS011;61307;49.628;-1.624;2023-12-22T01:08:03;13.15;;;2.53;;
73120;SDS011;61307;49.628;-1.624;2023-12-22T01:10:30;9.27;;;2.40;;
73120;SDS011;61307;49.628;-1.624;2023-12-22T01:12:57;11.18;;;2.67;;
73120;SDS011;61307;49.628;-1.624;2023-12-22T01:15:24;10.57;;;2.72;;
73120;SDS011;61307;49.628;-1.624;2023-12-22T01:17:53;9.95;;;2.28;;
73120;SDS011;61307;49.628;-1.624;2023-12-22T01:20:20;9.43;;;2.28;;
73120;SDS011;61307;49.628;-1.624;2023-12-22T01:22:47;10.07;;;2.75;;
73120;SDS011;61307;49.628;-1.624;2023-12-22T01:25:14;15.02;;;3.08;;
73120;SDS011;61307;49.628;-1.624;2023-12-22T01:27:40;9.73;;;2.72;;
73120;SDS011;61307;49.628;-1.624;2023-12-22T01:30:08;10.82;;;2.50;;
73120;SDS011;61307;49.628;-1.624;2023-12-22T01:32:35;11.02;;;2.35;;
73120;SDS011;61307;49.628;-1.624;2023-12-22T01:35:03;7.78;;;2.17;;
73120;SDS011;61307;49.628;-1.624;2023-12-22T01:37:35;12.10;;;2.33;;
73120;SDS011;61307;49.628;-1.624;2023-12-22T01:40:02;8.90;;;2.35;;
73120;SDS011;61307;49.628;-1.624;2023-12-22T01:42:29;8.90;;;2.22;;
73120;SDS011;61307;49.628;-1.624;2023-12-22T01:44:56;12.07;;;2.78;;
73120;SDS011;61307;49.628;-1.624;2023-12-22T01:47:23;7.13;;;2.00;;
73120;SDS011;61307;49.628;-1.624;2023-12-22T01:49:51;8.93;;;2.30;;
73120;SDS011;61307;49.628;-1.624;2023-12-22T01:52:19;8.65;;;2.28;;
73120;SDS011;61307;49.628;-1.624;2023-12-22T01:54:46;6.32;;;1.88;;
73120;SDS011;61307;49.628;-1.624;2023-12-22T01:57:13;8.45;;;2.35;;
73120;SDS011;61307;49.628;-1.624;2023-12-22T01:59:43;8.48;;;1.70;;
73120;SDS011;61307;49.628;-1.624;2023-12-22T02:02:10;9.02;;;2.10;;
73120;SDS011;61307;49.628;-1.624;2023-12-22T02:04:37;5.47;;;2.10;;
73120;SDS011;61307;49.628;-1.624;2023-12-22T02:07:06;9.70;;;2.33;;
73120;SDS011;61307;49.628;-1.624;2023-12-22T02:09:37;6.72;;;2.00;;
73120;SDS011;61307;49.628;-1.624;2023-12-22T02:12:04;8.57;;;2.30;;
73120;SDS011;61307;49.628;-1.624;2023-12-22T02:14:31;8.13;;;2.60;;
73120;SDS011;61307;49.628;-1.624;2023-12-22T02:17:01;8.75;;;2.10;;
73120;SDS011;61307;49.628;-1.624;2023-12-22T02:19:39;6.45;;;1.92;;
73120;SDS011;61307;49.628;-1.624;2023-12-22T02:22:08;6.97;;;2.13;;
73120;SDS011;61307;49.628;-1.624;2023-12-22T02:24:38;6.25;;;1.73;;
73120;SDS011;61307;49.628;-1.624;2023-12-22T02:27:05;6.13;;;2.00;;
73120;SDS011;61307;49.628;-1.624;2023-12-22T02:29:41;8.10;;;2.17;;
73120;SDS011;61307;49.628;-1.624;2023-12-22T02:32:10;6.70;;;1.90;;
73120;SDS011;61307;49.628;-1.624;2023-12-22T02:34:43;9.20;;;2.00;;
73120;SDS011;61307;49.628;-1.624;2023-12-22T02:37:13;7.80;;;2.22;;
73120;SDS011;61307;49.628;-1.624;2023-12-22T02:39:42;5.63;;;1.60;;
73120;SDS011;61307;49.628;-1.624;2023-12-22T02:42:09;9.93;;;1.83;;
73120;SDS011;61307;49.628;-1.624;2023-12-22T02:44:37;7.70;;;1.90;;
73120;SDS011;61307;49.628;-1.624;2023-12-22T02:47:04;6.15;;;1.48;;
73120;SDS011;61307;49.628;-1.624;2023-12-22T02:49:31;5.65;;;1.63;;
73120;SDS011;61307;49.628;-1.624;2023-12-22T02:51:58;6.15;;;1.85;;
73120;SDS011;61307;49.628;-1.624;2023-12-22T02:54:25;8.45;;;2.40;;
73120;SDS011;61307;49.628;-1.624;2023-12-22T02:56:56;8.45;;;1.95;;
73120;SDS011;61307;49.628;-1.624;2023-12-22T02:59:24;8.00;;;2.22;;
73120;SDS011;61307;49.628;-1.624;2023-12-22T03:01:52;6.97;;;1.63;;
73120;SDS011;61307;49.628;-1.624;2023-12-22T03:04:19;7.93;;;1.88;;
73120;SDS011;61307;49.628;-1.624;2023-12-22T03:06:46;5.90;;;1.80;;
73120;SDS011;61307;49.628;-1.624;2023-12-22T03:09:13;9.60;;;1.90;;
73120;SDS011;61307;49.628;-1.624;2023-12-22T03:11:40;6.95;;;1.92;;
73120;SDS011;61307;49.628;-1.624;2023-12-22T03:14:08;5.72;;;2.17;;
73120;SDS011;61307;49.628;-1.624;2023-12-22T03:16:35;9.65;;;2.10;;
73120;SDS011;61307;49.628;-1.624;2023-12-22T03:19:02;7.70;;;1.98;;
73120;SDS011;61307;49.628;-1.624;2023-12-22T03:21:29;7.22;;;2.10;;
73120;SDS011;61307;49.628;-1.624;2023-12-22T03:23:56;9.48;;;2.10;;
73120;SDS011;61307;49.628;-1.624;2023-12-22T03:26:22;5.85;;;1.90;;
73120;SDS011;61307;49.628;-1.624;2023-12-22T03:28:50;5.47;;;1.42;;
73120;SDS011;61307;49.628;-1.624;2023-12-22T03:31:18;7.05;;;1.60;;
73120;SDS011;61307;49.628;-1.624;2023-12-22T03:33:45;6.07;;;1.58;;
73120;SDS011;61307;49.628;-1.624;2023-12-22T03:36:12;7.72;;;1.90;;
73120;SDS011;61307;49.628;-1.624;2023-12-22T03:38:38;9.65;;;2.30;;
73120;SDS011;61307;49.628;-1.624;2023-12-22T03:41:05;8.20;;;1.45;;
73120;SDS011;61307;49.628;-1.624;2023-12-22T03:43:32;7.63;;;1.55;;
73120;SDS011;61307;49.628;-1.624;2023-12-22T03:45:59;6.80;;;1.67;;
73120;SDS011;61307;49.628;-1.624;2023-12-22T03:48:27;7.30;;;1.90;;
73120;SDS011;61307;49.628;-1.624;2023-12-22T03:50:54;8.43;;;1.83;;
73120;SDS011;61307;49.628;-1.624;2023-12-22T03:53:21;6.25;;;1.80;;
73120;SDS011;61307;49.628;-1.624;2023-12-22T03:55:48;8.00;;;1.70;;
73120;SDS011;61307;49.628;-1.624;2023-12-22T03:58:15;8.98;;;2.22;;
73120;SDS011;61307;49.628;-1.624;2023-12-22T04:00:42;5.95;;;1.40;;
73120;SDS011;61307;49.628;-1.624;2023-12-22T04:03:09;9.40;;;1.98;;
73120;SDS011;61307;49.628;-1.624;2023-12-22T04:05:38;7.47;;;1.95;;
73120;SDS011;61307;49.628;-1.624;2023-12-22T04:08:05;7.30;;;1.80;;
73120;SDS011;61307;49.628;-1.624;2023-12-22T04:10:32;4.50;;;1.75;;
73120;SDS011;61307;49.628;-1.624;2023-12-22T04:12:59;12.68;;;2.13;;
73120;SDS011;61307;49.628;-1.624;2023-12-22T04:15:26;6.45;;;1.63;;
73120;SDS011;61307;49.628;-1.624;2023-12-22T04:17:53;7.88;;;1.77;;
73120;SDS011;61307;49.628;-1.624;2023-12-22T04:20:20;7.20;;;1.88;;
73120;SDS011;61307;49.628;-1.624;2023-12-22T04:22:49;9.25;;;2.40;;
73120;SDS011;61307;49.628;-1.624;2023-12-22T04:25:16;7.65;;;1.88;;
73120;SDS011;61307;49.628;-1.624;2023-12-22T04:27:43;8.80;;;1.70;;
73120;SDS011;61307;49.628;-1.624;2023-12-22T04:30:10;6.70;;;1.88;;
73120;SDS011;61307;49.628;-1.624;2023-12-22T04:32:38;8.90;;;2.05;;
73120;SDS011;61307;49.628;-1.624;2023-12-22T04:35:05;8.90;;;2.15;;
73120;SDS011;61307;49.628;-1.624;2023-12-22T04:37:32;6.93;;;1.52;;
73120;SDS011;61307;49.628;-1.624;2023-12-22T04:40:00;6.97;;;1.75;;
73120;SDS011;61307;49.628;-1.624;2023-12-22T04:42:28;7.57;;;1.65;;
73120;SDS011;61307;49.628;-1.624;2023-12-22T04:44:55;8.07;;;1.90;;
73120;SDS011;61307;49.628;-1.624;2023-12-22T04:47:22;9.90;;;2.03;;
73120;SDS011;61307;49.628;-1.624;2023-12-22T04:49:49;7.65;;;2.60;;
73120;SDS011;61307;49.628;-1.624;2023-12-22T04:52:16;9.70;;;2.08;;
73120;SDS011;61307;49.628;-1.624;2023-12-22T04:54:43;9.43;;;2.35;;
73120;SDS011;61307;49.628;-1.624;2023-12-22T04:57:11;6.78;;;1.90;;
73120;SDS011;61307;49.628;-1.624;2023-12-22T04:59:38;9.20;;;2.33;;
73120;SDS011;61307;49.628;-1.624;2023-12-22T05:02:05;7.40;;;1.98;;
73120;SDS011;61307;49.628;-1.624;2023-12-22T05:04:32;6.60;;;1.85;;
73120;SDS011;61307;49.628;-1.624;2023-12-22T05:06:59;6.25;;;1.80;;
73120;SDS011;61307;49.628;-1.624;2023-12-22T05:09:26;8.93;;;2.10;;
73120;SDS011;61307;49.628;-1.624;2023-12-22T05:11:53;9.00;;;1.77;;
73120;SDS011;61307;49.628;-1.624;2023-12-22T05:14:22;8.02;;;2.10;;
73120;SDS011;61307;49.628;-1.624;2023-12-22T05:16:49;8.65;;;2.00;;
73120;SDS011;61307;49.628;-1.624;2023-12-22T05:19:20;6.47;;;2.00;;
73120;SDS011;61307;49.628;-1.624;2023-12-22T05:21:47;8.32;;;2.13;;
73120;SDS011;61307;49.628;-1.624;2023-12-22T05:24:14;6.38;;;2.55;;
73120;SDS011;61307;49.628;-1.624;2023-12-22T05:26:42;6.45;;;2.03;;
73120;SDS011;61307;49.628;-1.624;2023-12-22T05:29:09;8.50;;;2.45;;
73120;SDS011;61307;49.628;-1.624;2023-12-22T05:31:39;7.93;;;2.30;;
73120;SDS011;61307;49.628;-1.624;2023-12-22T05:34:06;7.13;;;1.85;;
73120;SDS011;61307;49.628;-1.624;2023-12-22T05:36:35;8.25;;;2.63;;
73120;SDS011;61307;49.628;-1.624;2023-12-22T05:39:02;7.65;;;1.73;;
73120;SDS011;61307;49.628;-1.624;2023-12-22T05:41:29;9.85;;;2.05;;
73120;SDS011;61307;49.628;-1.624;2023-12-22T05:43:56;7.63;;;1.98;;
73120;SDS011;61307;49.628;-1.624;2023-12-22T05:46:23;9.60;;;2.08;;
73120;SDS011;61307;49.628;-1.624;2023-12-22T05:48:51;5.10;;;1.77;;
73120;SDS011;61307;49.628;-1.624;2023-12-22T05:51:18;5.68;;;1.75;;
73120;SDS011;61307;49.628;-1.624;2023-12-22T05:53:45;5.22;;;2.13;;
73120;SDS011;61307;49.628;-1.624;2023-12-22T05:56:18;7.57;;;1.95;;
73120;SDS011;61307;49.628;-1.624;2023-12-22T05:58:46;7.47;;;1.92;;
73120;SDS011;61307;49.628;-1.624;2023-12-22T06:01:15;6.63;;;1.80;;
73120;SDS011;61307;49.628;-1.624;2023-12-22T06:03:43;5.78;;;1.75;;
73120;SDS011;61307;49.628;-1.624;2023-12-22T06:06:11;7.97;;;1.70;;
73120;SDS011;61307;49.628;-1.624;2023-12-22T06:08:39;6.28;;;1.85;;
73120;SDS011;61307;49.628;-1.624;2023-12-22T06:11:06;5.60;;;1.90;;
73120;SDS011;61307;49.628;-1.624;2023-12-22T06:13:33;5.97;;;1.70;;
73120;SDS011;61307;49.628;-1.624;2023-12-22T06:16:00;7.18;;;1.83;;
73120;SDS011;61307;49.628;-1.624;2023-12-22T06:18:27;6.47;;;1.73;;
73120;SDS011;61307;49.628;-1.624;2023-12-22T06:20:54;6.07;;;2.00;;
73120;SDS011;61307;49.628;-1.624;2023-12-22T06:23:22;9.52;;;2.22;;
73120;SDS011;61307;49.628;-1.624;2023-12-22T06:25:49;7.22;;;2.20;;
73120;SDS011;61307;49.628;-1.624;2023-12-22T06:28:16;6.50;;;1.70;;
73120;SDS011;61307;49.628;-1.624;2023-12-22T06:30:43;6.47;;;1.90;;
73120;SDS011;61307;49.628;-1.624;2023-12-22T06:33:12;5.80;;;2.00;;
73120;SDS011;61307;49.628;-1.624;2023-12-22T06:35:39;6.25;;;1.95;;
73120;SDS011;61307;49.628;-1.624;2023-12-22T06:38:07;6.13;;;1.90;;
73120;SDS011;61307;49.628;-1.624;2023-12-22T06:40:37;8.00;;;1.95;;
73120;SDS011;61307;49.628;-1.624;2023-12-22T06:43:04;8.15;;;1.85;;
73120;SDS011;61307;49.628;-1.624;2023-12-22T06:45:31;5.13;;;1.88;;
73120;SDS011;61307;49.628;-1.624;2023-12-22T06:47:58;9.63;;;2.45;;
73120;SDS011;61307;49.628;-1.624;2023-12-22T06:50:25;7.43;;;2.10;;
73120;SDS011;61307;49.628;-1.624;2023-12-22T06:52:52;8.55;;;2.47;;
73120;SDS011;61307;49.628;-1.624;2023-12-22T06:55:19;6.55;;;1.98;;
73120;SDS011;61307;49.628;-1.624;2023-12-22T06:57:47;7.65;;;2.03;;
73120;SDS011;61307;49.628;-1.624;2023-12-22T07:00:15;9.60;;;2.28;;
73120;SDS011;61307;49.628;-1.624;2023-12-22T07:02:42;6.65;;;1.80;;
73120;SDS011;61307;49.628;-1.624;2023-12-22T07:08:04;6.68;;;1.80;;
73120;SDS011;61307;49.628;-1.624;2023-12-22T07:10:32;6.15;;;1.90;;
73120;SDS011;61307;49.628;-1.624;2023-12-22T07:13:00;9.05;;;2.00;;
73120;SDS011;61307;49.628;-1.624;2023-12-22T07:15:27;8.02;;;2.08;;
73120;SDS011;61307;49.628;-1.624;2023-12-22T07:17:54;4.85;;;1.73;;
73120;SDS011;61307;49.628;-1.624;2023-12-22T07:20:21;8.05;;;1.80;;
73120;SDS011;61307;49.628;-1.624;2023-12-22T07:22:48;16.70;;;3.10;;
73120;SDS011;61307;49.628;-1.624;2023-12-22T07:25:16;6.28;;;1.90;;
73120;SDS011;61307;49.628;-1.624;2023-12-22T07:27:45;5.28;;;1.88;;
73120;SDS011;61307;49.628;-1.624;2023-12-22T07:30:14;6.03;;;1.83;;
73120;SDS011;61307;49.628;-1.624;2023-12-22T07:32:45;8.10;;;2.22;;
73120;SDS011;61307;49.628;-1.624;2023-12-22T07:35:14;9.02;;;2.47;;
73120;SDS011;61307;49.628;-1.624;2023-12-22T07:37:42;11.57;;;2.53;;
73120;SDS011;61307;49.628;-1.624;2023-12-22T07:40:09;7.00;;;2.05;;
73120;SDS011;61307;49.628;-1.624;2023-12-22T07:42:37;9.27;;;2.30;;
73120;SDS011;61307;49.628;-1.624;2023-12-22T07:45:04;7.00;;;2.30;;
73120;SDS011;61307;49.628;-1.624;2023-12-22T07:47:34;7.75;;;2.10;;
73120;SDS011;61307;49.628;-1.624;2023-12-22T07:50:01;9.43;;;2.47;;
73120;SDS011;61307;49.628;-1.624;2023-12-22T07:52:28;7.32;;;1.85;;
73120;SDS011;61307;49.628;-1.624;2023-12-22T07:54:55;10.40;;;2.53;;
73120;SDS011;61307;49.628;-1.624;2023-12-22T07:57:22;9.60;;;1.85;;
73120;SDS011;61307;49.628;-1.624;2023-12-22T07:59:49;10.63;;;2.72;;
73120;SDS011;61307;49.628;-1.624;2023-12-22T08:02:16;10.43;;;2.10;;
73120;SDS011;61307;49.628;-1.624;2023-12-22T08:04:45;7.72;;;2.47;;
73120;SDS011;61307;49.628;-1.624;2023-12-22T08:07:12;9.60;;;2.40;;
73120;SDS011;61307;49.628;-1.624;2023-12-22T08:09:39;8.02;;;2.20;;
73120;SDS011;61307;49.628;-1.624;2023-12-22T08:12:07;7.70;;;2.00;;
73120;SDS011;61307;49.628;-1.624;2023-12-22T08:14:34;9.13;;;2.30;;
73120;SDS011;61307;49.628;-1.624;2023-12-22T08:17:01;9.23;;;2.38;;
73120;SDS011;61307;49.628;-1.624;2023-12-22T08:19:28;7.30;;;2.20;;
73120;SDS011;61307;49.628;-1.624;2023-12-22T08:21:56;10.13;;;2.58;;
73120;SDS011;61307;49.628;-1.624;2023-12-22T08:24:23;12.13;;;2.30;;
73120;SDS011;61307;49.628;-1.624;2023-12-22T08:26:50;6.03;;;1.80;;
73120;SDS011;61307;49.628;-1.624;2023-12-22T08:29:17;10.70;;;2.50;;
73120;SDS011;61307;49.628;-1.624;2023-12-22T08:31:44;9.32;;;2.30;;
73120;SDS011;61307;49.628;-1.624;2023-12-22T08:34:11;7.80;;;2.35;;
73120;SDS011;61307;49.628;-1.624;2023-12-22T08:36:38;12.13;;;2.60;;
73120;SDS011;61307;49.628;-1.624;2023-12-22T08:39:06;14.75;;;2.95;;
73120;SDS011;61307;49.628;-1.624;2023-12-22T08:41:33;8.95;;;2.15;;
73120;SDS011;61307;49.628;-1.624;2023-12-22T08:44:02;8.48;;;2.08;;
73120;SDS011;61307;49.628;-1.624;2023-12-22T08:46:29;8.77;;;2.33;;
73120;SDS011;61307;49.628;-1.624;2023-12-22T08:48:56;10.10;;;2.47;;
73120;SDS011;61307;49.628;-1.624;2023-12-22T08:51:24;8.07;;;2.25;;
73120;SDS011;61307;49.628;-1.624;2023-12-22T08:53:52;11.18;;;2.72;;
73120;SDS011;61307;49.628;-1.624;2023-12-22T08:56:21;7.32;;;2.42;;
73120;SDS011;61307;49.628;-1.624;2023-12-22T08:58:48;7.10;;;2.20;;
73120;SDS011;61307;49.628;-1.624;2023-12-22T09:01:17;6.65;;;2.33;;
73120;SDS011;61307;49.628;-1.624;2023-12-22T09:03:44;8.35;;;2.30;;
73120;SDS011;61307;49.628;-1.624;2023-12-22T09:06:13;6.50;;;2.25;;
73120;SDS011;61307;49.628;-1.624;2023-12-22T09:08:41;11.00;;;2.97;;
73120;SDS011;61307;49.628;-1.624;2023-12-22T09:11:08;10.10;;;2.30;;
73120;SDS011;61307;49.628;-1.624;2023-12-22T09:13:38;6.28;;;2.40;;
73120;SDS011;61307;49.628;-1.624;2023-12-22T09:16:05;11.00;;;3.22;;
73120;SDS011;61307;49.628;-1.624;2023-12-22T09:18:32;13.07;;;2.88;;
73120;SDS011;61307;49.628;-1.624;2023-12-22T09:20:59;17.85;;;3.28;;
73120;SDS011;61307;49.628;-1.624;2023-12-22T09:23:26;13.20;;;2.70;;
73120;SDS011;61307;49.628;-1.624;2023-12-22T09:25:53;14.77;;;3.53;;
73120;SDS011;61307;49.628;-1.624;2023-12-22T09:28:20;17.75;;;3.42;;
73120;SDS011;61307;49.628;-1.624;2023-12-22T09:30:49;15.35;;;3.72;;
73120;SDS011;61307;49.628;-1.624;2023-12-22T09:33:16;19.83;;;3.30;;
73120;SDS011;61307;49.628;-1.624;2023-12-22T09:35:43;13.65;;;3.03;;
73120;SDS011;61307;49.628;-1.624;2023-12-22T09:38:11;15.10;;;3.53;;
73120;SDS011;61307;49.628;-1.624;2023-12-22T09:40:38;20.75;;;2.72;;
73120;SDS011;61307;49.628;-1.624;2023-12-22T09:43:06;15.30;;;3.08;;
73120;SDS011;61307;49.628;-1.624;2023-12-22T09:45:34;10.18;;;2.83;;
73120;SDS011;61307;49.628;-1.624;2023-12-22T09:48:04;10.75;;;3.00;;
73120;SDS011;61307;49.628;-1.624;2023-12-22T09:50:32;9.82;;;2.67;;
73120;SDS011;61307;49.628;-1.624;2023-12-22T09:53:01;15.23;;;3.53;;
73120;SDS011;61307;49.628;-1.624;2023-12-22T09:55:30;16.40;;;2.85;;
73120;SDS011;61307;49.628;-1.624;2023-12-22T09:57:58;15.15;;;2.75;;
73120;SDS011;61307;49.628;-1.624;2023-12-22T10:00:26;10.98;;;2.80;;
73120;SDS011;61307;49.628;-1.624;2023-12-22T10:02:55;15.43;;;3.13;;
73120;SDS011;61307;49.628;-1.624;2023-12-22T10:05:23;11.65;;;2.78;;
73120;SDS011;61307;49.628;-1.624;2023-12-22T10:07:50;11.43;;;3.00;;
73120;SDS011;61307;49.628;-1.624;2023-12-22T10:10:17;24.63;;;3.70;;
73120;SDS011;61307;49.628;-1.624;2023-12-22T10:12:46;24.27;;;3.70;;
73120;SDS011;61307;49.628;-1.624;2023-12-22T10:15:13;18.95;;;3.95;;
73120;SDS011;61307;49.628;-1.624;2023-12-22T10:17:41;14.55;;;3.30;;
73120;SDS011;61307;49.628;-1.624;2023-12-22T10:20:09;16.88;;;3.67;;
73120;SDS011;61307;49.628;-1.624;2023-12-22T10:22:38;21.17;;;4.35;;
73120;SDS011;61307;49.628;-1.624;2023-12-22T10:25:05;20.35;;;3.97;;
73120;SDS011;61307;49.628;-1.624;2023-12-22T10:27:37;36.40;;;4.10;;
73120;SDS011;61307;49.628;-1.624;2023-12-22T10:30:04;22.80;;;3.67;;
73120;SDS011;61307;49.628;-1.624;2023-12-22T10:32:32;29.40;;;4.15;;
73120;SDS011;61307;49.628;-1.624;2023-12-22T10:34:59;30.77;;;3.97;;
73120;SDS011;61307;49.628;-1.624;2023-12-22T10:37:27;31.15;;;4.38;;
73120;SDS011;61307;49.628;-1.624;2023-12-22T10:39:55;22.33;;;3.80;;
73120;SDS011;61307;49.628;-1.624;2023-12-22T10:42:23;22.63;;;3.90;;
73120;SDS011;61307;49.628;-1.624;2023-12-22T10:44:50;19.83;;;3.63;;
73120;SDS011;61307;49.628;-1.624;2023-12-22T10:47:18;21.50;;;3.95;;
73120;SDS011;61307;49.628;-1.624;2023-12-22T10:49:46;12.13;;;2.90;;
73120;SDS011;61307;49.628;-1.624;2023-12-22T10:52:15;14.93;;;3.22;;
73120;SDS011;61307;49.628;-1.624;2023-12-22T10:54:43;14.55;;;3.70;;
73120;SDS011;61307;49.628;-1.624;2023-12-22T10:57:12;19.92;;;3.53;;
73120;SDS011;61307;49.628;-1.624;2023-12-22T10:59:40;17.05;;;3.10;;
73120;SDS011;61307;49.628;-1.624;2023-12-22T11:02:11;14.45;;;3.55;;
73120;SDS011;61307;49.628;-1.624;2023-12-22T11:04:44;16.70;;;4.10;;
73120;SDS011;61307;49.628;-1.624;2023-12-22T11:07:19;15.80;;;3.88;;
73120;SDS011;61307;49.628;-1.624;2023-12-22T11:09:50;23.15;;;4.53;;
73120;SDS011;61307;49.628;-1.624;2023-12-22T11:12:21;18.75;;;4.30;;
73120;SDS011;61307;49.628;-1.624;2023-12-22T11:14:50;17.58;;;3.42;;
73120;SDS011;61307;49.628;-1.624;2023-12-22T11:17:20;16.77;;;5.78;;
73120;SDS011;61307;49.628;-1.624;2023-12-22T11:19:48;23.10;;;6.40;;
73120;SDS011;61307;49.628;-1.624;2023-12-22T11:22:16;25.85;;;6.05;;
73120;SDS011;61307;49.628;-1.624;2023-12-22T11:24:45;20.05;;;4.57;;
73120;SDS011;61307;49.628;-1.624;2023-12-22T11:27:14;17.05;;;4.72;;
73120;SDS011;61307;49.628;-1.624;2023-12-22T11:29:46;22.17;;;4.80;;
73120;SDS011;61307;49.628;-1.624;2023-12-22T11:32:15;19.38;;;4.70;;
73120;SDS011;61307;49.628;-1.624;2023-12-22T11:34:42;20.55;;;4.32;;
73120;SDS011;61307;49.628;-1.624;2023-12-22T11:37:11;15.70;;;4.18;;
73120;SDS011;61307;49.628;-1.624;2023-12-22T11:39:38;20.17;;;4.22;;
73120;SDS011;61307;49.628;-1.624;2023-12-22T11:42:06;13.68;;;3.45;;
73120;SDS011;61307;49.628;-1.624;2023-12-22T11:44:35;16.08;;;4.15;;
73120;SDS011;61307;49.628;-1.624;2023-12-22T11:47:04;14.50;;;3.72;;
73120;SDS011;61307;49.628;-1.624;2023-12-22T11:49:32;9.00;;;3.35;;
73120;SDS011;61307;49.628;-1.624;2023-12-22T11:52:04;11.73;;;2.92;;
73120;SDS011;61307;49.628;-1.624;2023-12-22T11:54:45;16.13;;;3.13;;
73120;SDS011;61307;49.628;-1.624;2023-12-22T12:00:06;12.18;;;2.85;;
73120;SDS011;61307;49.628;-1.624;2023-12-22T12:02:37;14.88;;;3.75;;
73120;SDS011;61307;49.628;-1.624;2023-12-22T12:05:06;13.95;;;3.22;;
73120;SDS011;61307;49.628;-1.624;2023-12-22T12:07:38;14.25;;;3.35;;
73120;SDS011;61307;49.628;-1.624;2023-12-22T12:10:06;12.68;;;3.30;;
73120;SDS011;61307;49.628;-1.624;2023-12-22T12:12:34;14.02;;;3.67;;
73120;SDS011;61307;49.628;-1.624;2023-12-22T12:15:06;8.02;;;2.80;;
73120;SDS011;61307;49.628;-1.624;2023-12-22T12:17:38;12.23;;;2.75;;
73120;SDS011;61307;49.628;-1.624;2023-12-22T12:20:07;12.05;;;2.95;;
73120;SDS011;61307;49.628;-1.624;2023-12-22T12:22:35;10.45;;;3.28;;
73120;SDS011;61307;49.628;-1.624;2023-12-22T12:25:06;13.77;;;2.90;;
73120;SDS011;61307;49.628;-1.624;2023-12-22T12:27:35;14.32;;;3.10;;
73120;SDS011;61307;49.628;-1.624;2023-12-22T12:30:07;9.20;;;2.72;;
73120;SDS011;61307;49.628;-1.624;2023-12-22T12:32:40;8.43;;;2.75;;
73120;SDS011;61307;49.628;-1.624;2023-12-22T12:35:10;10.68;;;2.95;;
73120;SDS011;61307;49.628;-1.624;2023-12-22T12:37:38;8.50;;;2.60;;
73120;SDS011;61307;49.628;-1.624;2023-12-22T12:40:08;8.10;;;2.45;;
73120;SDS011;61307;49.628;-1.624;2023-12-22T12:42:37;10.02;;;2.38;;
73120;SDS011;61307;49.628;-1.624;2023-12-22T12:45:05;9.40;;;2.40;;
73120;SDS011;61307;49.628;-1.624;2023-12-22T12:47:33;9.77;;;2.42;;
73120;SDS011;61307;49.628;-1.624;2023-12-22T12:50:03;7.28;;;2.17;;
73120;SDS011;61307;49.628;-1.624;2023-12-22T12:52:31;7.20;;;2.47;;
73120;SDS011;61307;49.628;-1.624;2023-12-22T12:55:07;11.43;;;2.47;;
73120;SDS011;61307;49.628;-1.624;2023-12-22T12:57:35;14.95;;;2.50;;
73120;SDS011;61307;49.628;-1.624;2023-12-22T13:00:02;6.03;;;2.00;;
73120;SDS011;61307;49.628;-1.624;2023-12-22T13:02:29;8.52;;;2.45;;
73120;SDS011;61307;49.628;-1.624;2023-12-22T13:05:02;7.10;;;2.22;;
73120;SDS011;61307;49.628;-1.624;2023-12-22T13:07:30;8.88;;;1.98;;
73120;SDS011;61307;49.628;-1.624;2023-12-22T13:09:57;7.32;;;1.98;;
73120;SDS011;61307;49.628;-1.624;2023-12-22T13:12:23;8.05;;;2.20;;
73120;SDS011;61307;49.628;-1.624;2023-12-22T13:14:51;8.48;;;2.20;;
73120;SDS011;61307;49.628;-1.624;2023-12-22T13:17:18;8.15;;;2.08;;
73120;SDS011;61307;49.628;-1.624;2023-12-22T13:19:45;6.30;;;2.00;;
73120;SDS011;61307;49.628;-1.624;2023-12-22T13:22:13;9.20;;;2.20;;
73120;SDS011;61307;49.628;-1.624;2023-12-22T13:24:54;54.35;;;5.70;;
73120;SDS011;61307;49.628;-1.624;2023-12-22T13:27:23;39.20;;;3.42;;
73120;SDS011;61307;49.628;-1.624;2023-12-22T13:29:53;33.38;;;3.97;;
73120;SDS011;61307;49.628;-1.624;2023-12-22T13:32:21;19.27;;;3.28;;
73120;SDS011;61307;49.628;-1.624;2023-12-22T13:34:49;15.70;;;3.00;;
73120;SDS011;61307;49.628;-1.624;2023-12-22T13:37:19;20.80;;;3.80;;
73120;SDS011;61307;49.628;-1.624;2023-12-22T13:39:47;16.05;;;4.57;;
73120;SDS011;61307;49.628;-1.624;2023-12-22T13:42:16;23.80;;;3.03;;
73120;SDS011;61307;49.628;-1.624;2023-12-22T13:44:44;12.70;;;3.08;;
73120;SDS011;61307;49.628;-1.624;2023-12-22T13:47:13;11.73;;;3.45;;
73120;SDS011;61307;49.628;-1.624;2023-12-22T13:49:40;11.43;;;3.00;;
73120;SDS011;61307;49.628;-1.624;2023-12-22T13:52:08;8.43;;;2.78;;
73120;SDS011;61307;49.628;-1.624;2023-12-22T13:54:51;11.75;;;3.03;;
73120;SDS011;61307;49.628;-1.624;2023-12-22T13:57:21;9.55;;;2.95;;
73120;SDS011;61307;49.628;-1.624;2023-12-22T13:59:49;10.00;;;2.78;;
73120;SDS011;61307;49.628;-1.624;2023-12-22T14:02:19;9.35;;;2.40;;
73120;SDS011;61307;49.628;-1.624;2023-12-22T14:04:48;6.35;;;2.28;;
73120;SDS011;61307;49.628;-1.624;2023-12-22T14:07:16;14.20;;;2.25;;
73120;SDS011;61307;49.628;-1.624;2023-12-22T14:09:43;7.72;;;2.63;;
73120;SDS011;61307;49.628;-1.624;2023-12-22T14:12:12;8.98;;;2.25;;
73120;SDS011;61307;49.628;-1.624;2023-12-22T14:14:41;7.28;;;2.05;;
73120;SDS011;61307;49.628;-1.624;2023-12-22T14:17:10;6.32;;;2.42;;
73120;SDS011;61307;49.628;-1.624;2023-12-22T14:19:38;11.30;;;2.05;;
73120;SDS011;61307;49.628;-1.624;2023-12-22T14:22:05;6.15;;;1.98;;
73120;SDS011;61307;49.628;-1.624;2023-12-22T14:24:34;6.78;;;1.95;;
73120;SDS011;61307;49.628;-1.624;2023-12-22T14:27:07;6.47;;;1.98;;
73120;SDS011;61307;49.628;-1.624;2023-12-22T14:29:58;9.90;;;1.98;;
73120;SDS011;61307;49.628;-1.624;2023-12-22T14:32:25;7.70;;;1.80;;
73120;SDS011;61307;49.628;-1.624;2023-12-22T14:34:55;5.90;;;1.88;;
73120;SDS011;61307;49.628;-1.624;2023-12-22T14:37:22;8.02;;;1.98;;
73120;SDS011;61307;49.628;-1.624;2023-12-22T14:39:50;8.13;;;2.03;;
73120;SDS011;61307;49.628;-1.624;2023-12-22T14:42:21;7.78;;;1.70;;